createdAt,value
2022-12-12T00:01:01.364Z,38.60
2022-12-12T00:02:06.998Z,39.00
2022-12-12T00:03:09.537Z,39.10
2022-12-12T00:04:11.982Z,36.50
2022-12-12T00:05:16.709Z,36.10
2022-12-12T00:06:19.961Z,37.70
2022-12-12T00:07:22.257Z,38.90
2022-12-12T00:08:24.575Z,39.30
2022-12-12T00:09:26.904Z,39.50
2022-12-12T00:10:29.431Z,39.40
2022-12-12T00:11:31.786Z,39.40
2022-12-12T00:12:34.367Z,39.30
2022-12-12T00:13:37.862Z,39.20
2022-12-12T00:14:40.111Z,39.10
2022-12-12T00:15:42.403Z,39.20
2022-12-12T00:16:44.965Z,39.20
2022-12-12T00:17:47.254Z,39.20
2022-12-12T00:18:49.601Z,39.20
2022-12-12T00:19:52.108Z,39.10
2022-12-12T00:20:56.031Z,39.00
2022-12-12T00:21:58.326Z,39.00
2022-12-12T00:23:00.627Z,39.00
2022-12-12T00:24:03.140Z,39.10
2022-12-12T00:25:05.904Z,39.00
2022-12-12T00:26:18.262Z,39.10
2022-12-12T00:27:20.582Z,39.00
2022-12-12T00:28:23.120Z,39.10
2022-12-12T00:29:25.507Z,39.00
2022-12-12T00:30:27.887Z,39.20
2022-12-12T00:31:30.417Z,39.20
2022-12-12T00:32:33.330Z,39.10
2022-12-12T00:33:35.580Z,39.10
2022-12-12T00:34:37.814Z,39.00
2022-12-12T00:35:40.080Z,39.10
2022-12-12T00:36:42.614Z,39.10
2022-12-12T00:37:45.201Z,39.10
2022-12-12T00:38:48.438Z,39.00
2022-12-12T00:39:51.167Z,39.10
2022-12-12T00:41:00.736Z,39.10
2022-12-12T00:42:03.176Z,39.00
2022-12-12T00:43:05.680Z,39.10
2022-12-12T00:44:08.108Z,39.10
2022-12-12T00:45:11.156Z,38.90
2022-12-12T00:46:19.571Z,38.90
2022-12-12T00:47:22.458Z,38.90
2022-12-12T00:48:24.779Z,38.90
2022-12-12T00:49:27.060Z,38.90
2022-12-12T00:50:29.427Z,39.00
2022-12-12T00:51:31.727Z,39.10
2022-12-12T00:52:34.056Z,38.90
2022-12-12T00:53:37.585Z,39.00
2022-12-12T00:54:39.915Z,39.00
2022-12-12T00:55:42.665Z,39.10
2022-12-12T00:56:44.948Z,38.90
2022-12-12T00:57:47.233Z,39.00
2022-12-12T00:58:50.412Z,39.00
2022-12-12T00:59:52.823Z,39.00
2022-12-12T01:00:55.118Z,39.10
2022-12-12T01:01:57.507Z,39.00
2022-12-12T01:03:00.138Z,39.10
2022-12-12T01:04:04.675Z,39.10
2022-12-12T01:05:07.368Z,39.00
2022-12-12T01:06:10.279Z,39.10
2022-12-12T01:07:12.587Z,39.00
2022-12-12T01:08:15.074Z,39.00
2022-12-12T01:09:17.440Z,39.00
2022-12-12T01:10:20.291Z,39.00
2022-12-12T01:11:23.579Z,39.10
2022-12-12T01:12:25.877Z,39.00
2022-12-12T01:13:28.692Z,39.10
2022-12-12T01:14:32.208Z,40.30
2022-12-12T01:15:34.455Z,36.00
2022-12-12T01:16:36.860Z,36.40
2022-12-12T01:17:39.428Z,38.40
2022-12-12T01:18:42.491Z,39.80
2022-12-12T01:19:44.785Z,41.50
2022-12-12T01:20:47.437Z,41.30
2022-12-12T01:21:50.027Z,41.20
2022-12-12T01:22:53.317Z,41.30
2022-12-12T01:23:55.731Z,41.30
2022-12-12T01:24:58.197Z,41.30
2022-12-12T01:26:03.209Z,41.50
2022-12-12T01:27:05.563Z,41.70
2022-12-12T01:28:08.426Z,41.90
2022-12-12T01:29:10.908Z,41.80
2022-12-12T01:30:16.715Z,41.80
2022-12-12T01:31:20.496Z,41.90
2022-12-12T01:32:23.070Z,42.10
2022-12-12T01:33:25.682Z,42.30
2022-12-12T01:34:28.012Z,42.60
2022-12-12T01:35:32.515Z,42.50
2022-12-12T01:36:34.908Z,42.60
2022-12-12T01:37:39.235Z,42.40
2022-12-12T01:38:41.826Z,42.70
2022-12-12T01:39:44.213Z,42.40
2022-12-12T01:40:46.783Z,42.50
2022-12-12T01:41:49.208Z,42.80
2022-12-12T01:42:52.039Z,42.40
2022-12-12T01:43:54.773Z,42.40
2022-12-12T01:44:57.268Z,42.40
2022-12-12T01:46:00.085Z,43.10
2022-12-12T01:47:02.500Z,38.30
2022-12-12T01:48:05.542Z,34.50
2022-12-12T01:49:27.230Z,34.00
2022-12-12T01:50:29.528Z,34.00
2022-12-12T01:51:33.875Z,36.90
2022-12-12T01:52:43.020Z,38.30
2022-12-12T01:53:47.415Z,40.30
2022-12-12T01:54:55.118Z,41.30
2022-12-12T01:55:58.617Z,41.60
2022-12-12T01:57:05.090Z,42.10
2022-12-12T01:58:07.618Z,42.40
2022-12-12T01:59:13.868Z,42.40
2022-12-12T02:00:17.184Z,42.40
2022-12-12T02:01:21.674Z,42.60
2022-12-12T02:02:24.054Z,42.60
2022-12-12T02:03:27.286Z,42.60
2022-12-12T02:04:29.587Z,42.60
2022-12-12T02:05:39.523Z,41.90
2022-12-12T02:06:42.833Z,37.10
2022-12-12T02:07:45.508Z,36.60
2022-12-12T02:08:49.810Z,36.80
2022-12-12T02:09:53.300Z,37.10
2022-12-12T02:10:55.842Z,40.50
2022-12-12T02:11:59.147Z,41.10
2022-12-12T02:13:09.204Z,41.90
2022-12-12T02:14:13.613Z,42.20
2022-12-12T02:15:16.429Z,42.50
2022-12-12T02:16:24.499Z,42.60
2022-12-12T02:17:54.476Z,42.60
2022-12-12T02:19:38.338Z,42.70
2022-12-12T02:20:52.383Z,42.70
2022-12-12T02:22:03.459Z,42.70
2022-12-12T02:23:30.408Z,40.20
2022-12-12T02:25:08.466Z,40.20
2022-12-12T02:26:42.543Z,39.30
2022-12-12T02:28:06.317Z,41.80
2022-12-12T02:29:31.678Z,42.40
2022-12-12T02:30:48.587Z,42.30
2022-12-12T02:32:22.531Z,42.40
2022-12-12T02:33:46.799Z,42.80
2022-12-12T02:34:50.438Z,42.60
2022-12-12T02:36:02.960Z,33.00
2022-12-12T02:37:30.183Z,34.20
2022-12-12T02:38:44.468Z,36.60
2022-12-12T02:40:10.035Z,38.80
2022-12-12T02:41:21.043Z,41.40
2022-12-12T02:42:49.205Z,42.60
2022-12-12T02:44:08.664Z,42.80
2022-12-12T02:45:17.696Z,43.00
2022-12-12T02:46:23.205Z,42.90
2022-12-12T02:47:30.261Z,43.00
2022-12-12T02:48:46.856Z,43.00
2022-12-12T02:49:56.260Z,42.80
2022-12-12T02:51:01.864Z,42.80
2022-12-12T02:52:05.839Z,42.90
2022-12-12T02:53:08.392Z,42.90
2022-12-12T02:54:16.397Z,42.80
2022-12-12T02:55:19.555Z,42.80
2022-12-12T02:56:40.408Z,42.60
2022-12-12T02:57:42.782Z,40.80
2022-12-12T02:58:45.112Z,41.50
2022-12-12T02:59:56.046Z,41.40
2022-12-12T03:01:11.350Z,41.20
2022-12-12T03:02:41.752Z,41.30
2022-12-12T03:04:11.864Z,42.10
2022-12-12T03:05:40.041Z,42.30
2022-12-12T03:07:28.874Z,42.40
2022-12-12T03:09:07.983Z,42.70
2022-12-12T03:10:35.715Z,42.70
2022-12-12T03:12:08.755Z,42.70
2022-12-12T03:13:33.912Z,42.80
2022-12-12T03:14:42.379Z,42.90
2022-12-12T03:16:06.634Z,43.00
2022-12-12T03:17:18.024Z,42.80
2022-12-12T03:18:20.319Z,42.90
2022-12-12T03:19:40.307Z,43.30
2022-12-12T03:20:50.741Z,42.90
2022-12-12T03:22:11.092Z,42.90
2022-12-12T03:23:21.773Z,43.00
2022-12-12T03:24:35.739Z,43.10
2022-12-12T03:26:00.420Z,42.90
2022-12-12T03:27:10.356Z,42.90
2022-12-12T03:28:18.653Z,42.80
2022-12-12T03:29:35.840Z,43.00
2022-12-12T03:30:43.883Z,43.10
2022-12-12T03:31:52.191Z,43.20
2022-12-12T03:33:11.841Z,43.10
2022-12-12T03:34:20.139Z,43.20
2022-12-12T03:35:40.471Z,43.10
2022-12-12T03:37:13.017Z,43.10
2022-12-12T03:38:21.727Z,43.10
2022-12-12T03:39:35.293Z,43.30
2022-12-12T03:40:45.179Z,43.30
2022-12-12T03:41:55.467Z,43.30
2022-12-12T03:43:08.335Z,43.40
2022-12-12T03:44:18.710Z,43.40
2022-12-12T03:45:57.616Z,43.30
2022-12-12T03:47:11.021Z,43.80
2022-12-12T03:48:30.692Z,43.30
2022-12-12T03:49:45.496Z,43.30
2022-12-12T03:50:55.055Z,43.30
2022-12-12T03:52:08.919Z,43.30
2022-12-12T03:53:20.880Z,43.30
2022-12-12T03:54:39.775Z,43.30
2022-12-12T03:55:45.440Z,43.20
2022-12-12T03:57:26.996Z,43.40
2022-12-12T03:58:45.402Z,32.50
2022-12-12T03:59:54.576Z,32.40
2022-12-12T04:01:00.815Z,34.30
2022-12-12T04:02:31.429Z,37.10
2022-12-12T04:03:52.096Z,38.40
2022-12-12T04:05:35.283Z,41.00
2022-12-12T04:06:43.554Z,42.10
2022-12-12T04:07:51.558Z,42.20
2022-12-12T04:09:33.875Z,42.50
2022-12-12T04:11:00.953Z,42.70
2022-12-12T04:12:37.380Z,42.80
2022-12-12T04:13:52.747Z,42.60
2022-12-12T04:15:26.384Z,42.80
2022-12-12T04:16:36.205Z,42.60
2022-12-12T04:18:02.097Z,42.50
2022-12-12T04:20:02.668Z,42.50
2022-12-12T04:21:35.472Z,42.50
2022-12-12T04:23:03.794Z,42.40
2022-12-12T04:24:21.042Z,42.40
2022-12-12T04:26:20.810Z,42.20
2022-12-12T04:27:34.687Z,42.20
2022-12-12T04:28:41.067Z,42.30
2022-12-12T04:30:15.244Z,42.20
2022-12-12T04:31:22.485Z,42.20
2022-12-12T04:32:27.235Z,42.20
2022-12-12T04:33:39.432Z,42.00
2022-12-12T04:35:00.060Z,42.30
2022-12-12T04:36:03.989Z,42.20
2022-12-12T04:37:07.784Z,42.20
2022-12-12T04:38:15.613Z,42.20
2022-12-12T04:39:21.183Z,42.20
2022-12-12T04:40:43.162Z,42.10
2022-12-12T04:41:47.627Z,42.10
2022-12-12T04:43:12.254Z,42.10
2022-12-12T04:44:17.732Z,42.10
2022-12-12T04:45:23.350Z,42.20
2022-12-12T04:46:28.493Z,42.60
2022-12-12T04:47:32.006Z,42.20
2022-12-12T04:48:43.774Z,42.10
2022-12-12T04:49:49.229Z,42.30
2022-12-12T04:50:53.263Z,42.10
2022-12-12T04:52:02.379Z,42.70
2022-12-12T04:53:14.911Z,42.20
2022-12-12T04:54:30.258Z,42.20
2022-12-12T04:55:35.909Z,42.40
2022-12-12T04:56:41.523Z,42.10
2022-12-12T04:57:48.980Z,42.40
2022-12-12T04:58:51.512Z,42.30
2022-12-12T04:59:53.888Z,42.30
2022-12-12T05:01:03.244Z,42.30
2022-12-12T05:02:31.130Z,42.50
2022-12-12T05:03:46.953Z,42.40
2022-12-12T05:05:26.455Z,42.70
2022-12-12T05:06:35.085Z,42.90
2022-12-12T05:07:40.676Z,42.90
2022-12-12T05:08:45.848Z,42.90
2022-12-12T05:09:48.968Z,43.00
2022-12-12T05:10:56.326Z,42.70
2022-12-12T05:11:58.692Z,42.90
2022-12-12T05:13:01.430Z,42.90
2022-12-12T05:14:03.883Z,43.00
2022-12-12T05:15:07.170Z,42.90
2022-12-12T05:16:24.628Z,42.70
2022-12-12T05:17:35.186Z,42.70
2022-12-12T05:18:37.444Z,43.00
2022-12-12T05:19:39.742Z,42.80
2022-12-12T05:20:42.032Z,43.70
2022-12-12T05:21:44.308Z,43.80
2022-12-12T05:22:46.594Z,43.80
2022-12-12T05:23:48.871Z,43.70
2022-12-12T05:24:51.315Z,43.60
2022-12-12T05:25:53.673Z,43.60
2022-12-12T05:26:56.187Z,43.60
2022-12-12T05:27:58.683Z,43.70
2022-12-12T05:29:06.957Z,43.80
2022-12-12T05:30:10.535Z,43.80
2022-12-12T05:31:12.895Z,40.00
2022-12-12T05:32:15.288Z,40.60
2022-12-12T05:33:17.584Z,41.70
2022-12-12T05:34:19.912Z,41.60
2022-12-12T05:35:22.571Z,42.90
2022-12-12T05:36:24.824Z,44.30
2022-12-12T05:37:27.077Z,44.10
2022-12-12T05:38:29.401Z,44.20
2022-12-12T05:39:31.771Z,44.20
2022-12-12T05:40:34.209Z,44.10
2022-12-12T05:41:36.416Z,44.10
2022-12-12T05:42:39.222Z,44.10
2022-12-12T05:43:41.939Z,43.90
2022-12-12T05:44:44.207Z,44.00
2022-12-12T05:45:46.500Z,44.00
2022-12-12T05:46:48.887Z,44.20
2022-12-12T05:47:51.130Z,44.30
2022-12-12T05:48:53.378Z,44.30
2022-12-12T05:49:55.643Z,43.60
2022-12-12T05:51:00.111Z,44.00
2022-12-12T05:52:02.383Z,44.10
2022-12-12T05:53:04.671Z,44.00
2022-12-12T05:54:06.999Z,44.00
2022-12-12T05:55:09.433Z,44.00
2022-12-12T05:56:12.864Z,43.90
2022-12-12T05:57:15.104Z,43.80
2022-12-12T05:58:18.120Z,43.80
2022-12-12T05:59:20.407Z,43.70
2022-12-12T06:00:22.869Z,43.80
2022-12-12T06:01:25.172Z,43.80
2022-12-12T06:02:27.426Z,43.80
2022-12-12T06:03:29.798Z,40.70
2022-12-12T06:04:32.261Z,36.00
2022-12-12T06:05:34.596Z,35.10
2022-12-12T06:06:36.899Z,35.30
2022-12-12T06:07:39.925Z,35.60
2022-12-12T06:08:42.376Z,37.80
2022-12-12T06:09:44.616Z,41.00
2022-12-12T06:10:46.883Z,43.30
2022-12-12T06:11:49.095Z,44.40
2022-12-12T06:12:51.396Z,44.70
2022-12-12T06:13:53.652Z,44.10
2022-12-12T06:14:55.882Z,44.00
2022-12-12T06:15:58.172Z,44.40
2022-12-12T06:17:00.510Z,44.60
2022-12-12T06:18:02.828Z,43.10
2022-12-12T06:19:05.327Z,43.60
2022-12-12T06:20:08.274Z,43.70
2022-12-12T06:21:12.520Z,44.00
2022-12-12T06:22:14.847Z,44.10
2022-12-12T06:23:18.496Z,43.90
2022-12-12T06:28:38.564Z,43.60
2022-12-12T06:29:40.922Z,43.30
2022-12-12T06:30:43.291Z,43.20
2022-12-12T06:31:45.662Z,43.00
2022-12-12T06:32:47.912Z,43.10
2022-12-12T06:33:50.417Z,43.60
2022-12-12T06:34:53.372Z,43.20
2022-12-12T06:36:00.506Z,42.90
2022-12-12T06:37:03.305Z,42.80
2022-12-12T06:38:05.605Z,42.70
2022-12-12T06:39:07.958Z,42.80
2022-12-12T06:40:11.118Z,42.80
2022-12-12T06:41:15.051Z,43.30
2022-12-12T06:42:17.387Z,42.80
2022-12-12T06:43:19.792Z,42.60
2022-12-12T06:44:22.116Z,42.70
2022-12-12T06:45:24.396Z,42.70
2022-12-12T06:46:28.551Z,42.50
2022-12-12T06:47:31.027Z,42.50
2022-12-12T06:48:34.645Z,42.50
2022-12-12T06:49:37.154Z,42.40
2022-12-12T06:50:41.057Z,42.50
2022-12-12T06:51:48.503Z,42.40
2022-12-12T06:52:50.824Z,42.40
2022-12-12T06:53:53.534Z,42.40
2022-12-12T06:54:55.849Z,42.50
2022-12-12T06:55:58.198Z,42.60
2022-12-12T06:57:00.513Z,42.50
2022-12-12T06:58:02.823Z,42.40
2022-12-12T06:59:05.204Z,42.40
2022-12-12T07:00:08.298Z,42.50
2022-12-12T07:01:20.502Z,42.60
2022-12-12T07:02:29.263Z,42.80
2022-12-12T07:03:33.335Z,42.90
2022-12-12T07:04:35.566Z,42.90
2022-12-12T07:05:37.828Z,42.80
2022-12-12T07:06:40.659Z,42.70
2022-12-12T07:07:43.075Z,42.90
2022-12-12T07:08:45.466Z,42.70
2022-12-12T07:09:47.932Z,43.10
2022-12-12T07:10:50.229Z,42.80
2022-12-12T07:11:52.535Z,42.70
2022-12-12T07:12:57.535Z,43.10
2022-12-12T07:14:01.465Z,41.70
2022-12-12T07:15:04.158Z,41.10
2022-12-12T07:16:07.775Z,40.90
2022-12-12T07:17:10.071Z,40.70
2022-12-12T07:18:13.393Z,41.10
2022-12-12T07:19:15.649Z,40.70
2022-12-12T07:20:18.077Z,40.10
2022-12-12T07:21:21.232Z,41.40
2022-12-12T07:22:23.602Z,42.00
2022-12-12T07:23:26.147Z,42.20
2022-12-12T07:24:28.481Z,42.50
2022-12-12T07:25:30.743Z,42.80
2022-12-12T07:26:33.058Z,42.80
2022-12-12T07:27:35.440Z,42.90
2022-12-12T07:28:41.539Z,43.40
2022-12-12T07:29:44.267Z,43.00
2022-12-12T07:30:47.485Z,43.00
2022-12-12T07:31:49.840Z,43.00
2022-12-12T07:32:52.229Z,43.00
2022-12-12T07:33:54.927Z,43.00
2022-12-12T07:34:57.410Z,43.00
2022-12-12T07:36:00.609Z,43.00
2022-12-12T07:37:03.591Z,43.10
2022-12-12T07:38:06.053Z,43.00
2022-12-12T07:39:08.355Z,43.40
2022-12-12T07:40:10.820Z,43.10
2022-12-12T07:41:15.643Z,43.20
2022-12-12T07:42:17.979Z,43.20
2022-12-12T07:43:20.884Z,43.20
2022-12-12T07:44:23.209Z,43.20
2022-12-12T07:45:26.009Z,43.00
2022-12-12T07:46:28.449Z,43.00
2022-12-12T07:47:30.849Z,43.00
2022-12-12T07:48:33.416Z,43.10
2022-12-12T07:49:35.612Z,43.20
2022-12-12T07:50:38.959Z,43.20
2022-12-12T07:51:47.189Z,43.20
2022-12-12T07:52:51.497Z,43.20
2022-12-12T07:53:53.750Z,43.20
2022-12-12T07:54:56.020Z,43.20
2022-12-12T07:55:58.479Z,43.20
2022-12-12T07:57:00.711Z,43.30
2022-12-12T07:58:03.026Z,43.30
2022-12-12T07:59:05.322Z,43.30
2022-12-12T08:00:10.095Z,43.20
2022-12-12T08:01:17.069Z,43.20
2022-12-12T08:02:19.460Z,43.30
2022-12-12T08:03:21.765Z,43.20
2022-12-12T08:04:24.096Z,43.30
2022-12-12T08:05:26.408Z,43.30
2022-12-12T08:06:28.712Z,43.30
2022-12-12T08:07:30.985Z,43.40
2022-12-12T08:08:33.820Z,43.30
2022-12-12T08:09:37.134Z,43.20
2022-12-12T08:10:40.642Z,42.50
2022-12-12T08:11:46.342Z,42.80
2022-12-12T08:12:49.299Z,42.30
2022-12-12T08:13:52.444Z,40.50
2022-12-12T08:14:54.740Z,40.80
2022-12-12T08:15:57.064Z,41.10
2022-12-12T08:16:59.798Z,41.30
2022-12-12T08:18:02.183Z,41.50
2022-12-12T08:19:05.190Z,41.10
2022-12-12T08:20:08.284Z,42.30
2022-12-12T08:21:15.196Z,42.10
2022-12-12T08:22:19.299Z,42.30
2022-12-12T08:23:21.555Z,42.40
2022-12-12T08:24:24.079Z,42.80
2022-12-12T08:25:26.382Z,43.20
2022-12-12T08:26:29.606Z,42.90
2022-12-12T08:27:32.550Z,42.70
2022-12-12T08:28:35.524Z,42.80
2022-12-12T08:29:37.815Z,42.90
2022-12-12T08:30:40.099Z,42.80
2022-12-12T08:31:42.537Z,42.80
2022-12-12T08:32:44.827Z,42.70
2022-12-12T08:33:47.572Z,42.70
2022-12-12T08:34:55.232Z,42.50
2022-12-12T08:35:57.557Z,42.50
2022-12-12T08:37:02.332Z,42.40
2022-12-12T08:38:05.020Z,42.30
2022-12-12T08:39:15.783Z,42.30
2022-12-12T08:40:18.109Z,42.20
2022-12-12T08:41:20.804Z,42.20
2022-12-12T08:42:23.145Z,42.10
2022-12-12T08:43:25.396Z,42.10
2022-12-12T08:44:27.674Z,42.10
2022-12-12T08:45:30.011Z,42.10
2022-12-12T08:46:32.779Z,42.00
2022-12-12T08:47:35.085Z,42.10
2022-12-12T08:48:37.390Z,34.70
2022-12-12T08:49:39.720Z,32.00
2022-12-12T08:50:42.448Z,36.00
2022-12-12T08:51:44.769Z,38.70
2022-12-12T08:52:47.047Z,39.60
2022-12-12T08:53:51.257Z,41.50
2022-12-12T08:54:53.580Z,41.50
2022-12-12T08:55:55.980Z,41.40
2022-12-12T08:56:58.241Z,42.30
2022-12-12T08:58:00.521Z,41.80
2022-12-12T08:59:03.380Z,42.40
2022-12-12T09:00:06.971Z,42.50
2022-12-12T09:01:21.384Z,42.70
2022-12-12T09:02:23.887Z,42.40
2022-12-12T09:03:29.480Z,42.60
2022-12-12T09:04:34.536Z,42.90
2022-12-12T09:05:36.916Z,41.40
2022-12-12T09:06:39.692Z,42.20
2022-12-12T09:07:42.059Z,42.40
2022-12-12T09:08:44.625Z,42.70
2022-12-12T09:09:46.896Z,42.80
2022-12-12T09:10:50.445Z,42.90
2022-12-12T09:11:52.769Z,42.80
2022-12-12T09:12:55.497Z,42.60
2022-12-12T09:13:57.762Z,42.80
2022-12-12T09:15:00.045Z,42.80
2022-12-12T09:16:02.842Z,42.80
2022-12-12T09:17:05.070Z,42.80
2022-12-12T09:18:07.295Z,42.90
2022-12-12T09:19:09.561Z,42.90
2022-12-12T09:20:12.044Z,42.70
2022-12-12T09:21:14.475Z,42.60
2022-12-12T09:22:18.034Z,42.80
2022-12-12T09:23:21.458Z,42.80
2022-12-12T09:24:25.445Z,42.80
2022-12-12T09:25:27.807Z,42.90
2022-12-12T09:26:30.252Z,43.00
2022-12-12T09:27:32.616Z,43.00
2022-12-12T09:28:35.361Z,43.10
2022-12-12T09:29:37.595Z,43.00
2022-12-12T09:30:40.521Z,43.00
2022-12-12T09:31:42.860Z,43.00
2022-12-12T09:32:45.455Z,43.00
2022-12-12T09:33:48.325Z,42.90
2022-12-12T09:34:50.540Z,42.10
2022-12-12T09:36:00.820Z,40.80
2022-12-12T09:37:03.075Z,34.70
2022-12-12T09:38:09.501Z,37.40
2022-12-12T09:39:16.404Z,38.20
2022-12-12T09:40:24.510Z,41.60
2022-12-12T09:41:27.300Z,42.30
2022-12-12T09:42:32.391Z,42.40
2022-12-12T09:43:42.276Z,42.20
2022-12-12T09:44:44.590Z,42.40
2022-12-12T09:45:47.894Z,41.80
2022-12-12T09:47:01.173Z,42.20
2022-12-12T09:48:05.948Z,42.50
2022-12-12T09:49:13.411Z,43.00
2022-12-12T09:50:24.460Z,43.30
2022-12-12T09:51:26.762Z,43.30
2022-12-12T09:52:35.889Z,43.40
2022-12-12T09:53:41.346Z,43.20
2022-12-12T09:54:44.212Z,42.90
2022-12-12T09:56:03.780Z,42.60
2022-12-12T09:57:19.331Z,42.90
2022-12-12T09:58:29.593Z,42.70
2022-12-12T10:00:06.104Z,43.00
2022-12-12T10:01:24.314Z,43.00
2022-12-12T10:02:44.746Z,43.10
2022-12-12T10:03:58.654Z,43.10
2022-12-12T10:05:20.632Z,43.20
2022-12-12T10:06:37.027Z,43.10
2022-12-12T10:08:02.295Z,43.10
2022-12-12T10:09:40.688Z,43.20
2022-12-12T10:10:47.751Z,43.20
2022-12-12T10:11:52.765Z,43.20
2022-12-12T10:12:58.155Z,43.20
2022-12-12T10:14:03.252Z,43.20
2022-12-12T10:15:08.424Z,43.30
2022-12-12T10:16:14.755Z,43.30
2022-12-12T10:17:22.153Z,43.30
2022-12-12T10:18:33.304Z,43.30
2022-12-12T10:19:51.681Z,42.30
2022-12-12T10:20:57.582Z,41.50
2022-12-12T10:22:08.195Z,41.30
2022-12-12T10:23:30.536Z,41.20
2022-12-12T10:24:53.155Z,41.20
2022-12-12T10:26:18.775Z,41.40
2022-12-12T10:27:23.927Z,42.60
2022-12-12T10:28:28.672Z,43.70
2022-12-12T10:29:35.508Z,44.00
2022-12-12T10:31:08.965Z,44.30
2022-12-12T10:32:30.196Z,44.30
2022-12-12T10:33:51.084Z,44.20
2022-12-12T10:35:26.152Z,44.10
2022-12-12T10:37:01.371Z,43.60
2022-12-12T10:38:30.570Z,43.10
2022-12-12T10:40:09.583Z,43.30
2022-12-12T10:41:27.242Z,43.20
2022-12-12T10:42:54.006Z,43.00
2022-12-12T10:44:24.480Z,43.30
2022-12-12T10:45:55.031Z,43.40
2022-12-12T10:47:04.936Z,43.50
2022-12-12T10:48:07.509Z,43.40
2022-12-12T10:49:18.364Z,43.50
2022-12-12T10:50:26.941Z,43.60
2022-12-12T10:51:31.231Z,43.30
2022-12-12T10:52:33.842Z,43.10
2022-12-12T10:53:36.216Z,43.00
2022-12-12T10:54:45.022Z,43.20
2022-12-12T10:55:55.003Z,43.00
2022-12-12T10:57:19.911Z,42.10
2022-12-12T10:58:27.500Z,41.60
2022-12-12T10:59:29.847Z,41.70
2022-12-12T11:00:37.854Z,41.80
2022-12-12T11:02:10.882Z,42.00
2022-12-12T11:03:26.932Z,42.40
2022-12-12T11:04:31.785Z,43.20
2022-12-12T11:05:40.808Z,43.40
2022-12-12T11:06:48.873Z,43.50
2022-12-12T11:08:07.316Z,43.60
2022-12-12T11:09:18.152Z,43.60
2022-12-12T11:10:32.000Z,43.60
2022-12-12T11:11:35.936Z,43.70
2022-12-12T11:12:38.300Z,43.70
2022-12-12T11:13:46.987Z,43.70
2022-12-12T11:14:51.780Z,43.70
2022-12-12T11:16:12.881Z,43.70
2022-12-12T11:17:29.079Z,43.80
2022-12-12T11:18:31.353Z,43.80
2022-12-12T11:19:38.349Z,43.80
2022-12-12T11:20:46.614Z,43.80
2022-12-12T11:21:49.979Z,43.80
2022-12-12T11:22:55.134Z,43.80
2022-12-12T11:23:59.446Z,43.80
2022-12-12T11:25:01.905Z,43.80
2022-12-12T11:26:11.621Z,43.80
2022-12-12T11:27:30.820Z,43.80
2022-12-12T11:28:39.347Z,43.80
2022-12-12T11:29:49.790Z,43.80
2022-12-12T11:30:54.227Z,43.70
2022-12-12T11:31:58.659Z,43.60
2022-12-12T11:33:02.112Z,41.80
2022-12-12T11:34:06.251Z,41.30
2022-12-12T11:35:28.208Z,41.20
2022-12-12T11:36:34.938Z,41.20
2022-12-12T11:37:47.124Z,41.80
2022-12-12T11:38:53.417Z,41.90
2022-12-12T11:39:56.985Z,42.70
2022-12-12T11:41:08.539Z,43.00
2022-12-12T11:42:13.679Z,43.40
2022-12-12T11:43:36.929Z,43.50
2022-12-12T11:44:40.078Z,43.60
2022-12-12T11:45:42.416Z,43.60
2022-12-12T11:46:44.745Z,43.60
2022-12-12T11:47:48.348Z,43.60
2022-12-12T11:48:53.356Z,43.60
2022-12-12T11:49:58.770Z,43.70
2022-12-12T11:51:01.412Z,43.60
2022-12-12T11:52:18.435Z,43.70
2022-12-12T11:53:20.692Z,43.70
2022-12-12T11:54:29.320Z,43.70
2022-12-12T11:55:46.053Z,43.70
2022-12-12T11:57:14.098Z,43.70
2022-12-12T11:58:27.902Z,43.70
2022-12-12T11:59:36.838Z,43.60
2022-12-12T12:00:49.532Z,43.60
2022-12-12T12:01:57.519Z,42.80
2022-12-12T12:03:03.682Z,42.30
2022-12-12T12:04:24.888Z,41.30
2022-12-12T12:05:46.000Z,42.10
2022-12-12T12:07:12.232Z,43.00
2022-12-12T12:08:17.441Z,43.30
2022-12-12T12:09:35.757Z,43.60
2022-12-12T12:10:41.165Z,43.70
2022-12-12T12:12:09.032Z,43.80
2022-12-12T12:13:51.972Z,43.80
2022-12-12T12:15:23.484Z,43.60
2022-12-12T12:16:41.497Z,44.10
2022-12-12T12:18:09.911Z,44.10
2022-12-12T12:19:27.978Z,44.20
2022-12-12T12:20:33.338Z,44.20
2022-12-12T12:21:59.509Z,43.90
2022-12-12T12:23:27.166Z,44.20
2022-12-12T12:24:40.001Z,44.40
2022-12-12T12:26:21.248Z,44.50
2022-12-12T12:27:31.775Z,44.40
2022-12-12T12:28:34.035Z,44.40
2022-12-12T12:30:04.815Z,44.30
2022-12-12T12:31:22.323Z,44.50
2022-12-12T12:32:32.879Z,44.50
2022-12-12T12:34:08.550Z,44.40
2022-12-12T12:35:40.788Z,44.00
2022-12-12T12:37:05.983Z,44.00
2022-12-12T12:38:34.796Z,44.00
2022-12-12T12:39:59.487Z,44.00
2022-12-12T12:41:20.506Z,44.20
2022-12-12T12:42:47.797Z,44.30
2022-12-12T12:44:03.284Z,44.30
2022-12-12T12:45:19.458Z,44.30
2022-12-12T12:46:50.540Z,44.90
2022-12-12T12:47:55.918Z,44.40
2022-12-12T12:49:03.351Z,44.40
2022-12-12T12:50:26.293Z,45.00
2022-12-12T12:51:39.317Z,44.50
2022-12-12T12:52:55.456Z,44.60
2022-12-12T12:54:23.500Z,44.60
2022-12-12T12:55:34.268Z,44.60
2022-12-12T12:56:44.250Z,44.70
2022-12-12T12:57:51.502Z,44.60
2022-12-12T12:59:00.957Z,41.70
2022-12-12T13:00:18.302Z,40.50
2022-12-12T13:01:29.130Z,40.90
2022-12-12T13:02:58.353Z,41.00
2022-12-12T13:04:26.944Z,42.40
2022-12-12T13:05:39.168Z,44.50
2022-12-12T13:06:56.266Z,44.80
2022-12-12T13:08:19.045Z,44.50
2022-12-12T13:09:51.825Z,44.60
2022-12-12T13:11:03.210Z,44.70
2022-12-12T13:12:12.428Z,44.80
2022-12-12T13:13:25.529Z,44.80
2022-12-12T13:14:54.525Z,44.70
2022-12-12T13:16:02.609Z,44.80
2022-12-12T13:17:08.079Z,44.80
2022-12-12T13:18:16.036Z,44.90
2022-12-12T13:19:31.318Z,45.10
2022-12-12T13:20:38.746Z,44.90
2022-12-12T13:21:54.721Z,45.10
2022-12-12T13:23:32.035Z,45.10
2022-12-12T13:25:01.513Z,45.20
2022-12-12T13:26:17.148Z,45.20
2022-12-12T13:27:36.421Z,45.20
2022-12-12T13:28:58.643Z,45.30
2022-12-12T13:30:34.482Z,45.30
2022-12-12T13:32:30.709Z,45.30
2022-12-12T13:33:46.983Z,45.30
2022-12-12T13:34:53.975Z,45.10
2022-12-12T13:36:07.138Z,44.80
2022-12-12T13:37:15.199Z,39.30
2022-12-12T13:38:38.282Z,35.40
2022-12-12T13:39:40.568Z,36.30
2022-12-12T13:40:43.859Z,36.90
2022-12-12T13:42:01.815Z,41.60
2022-12-12T13:43:09.891Z,42.60
2022-12-12T13:44:33.248Z,41.90
2022-12-12T13:45:39.922Z,43.90
2022-12-12T13:46:42.362Z,43.60
2022-12-12T13:47:55.194Z,44.30
2022-12-12T13:49:06.394Z,44.80
2022-12-12T13:50:09.359Z,44.40
2022-12-12T13:51:31.348Z,44.20
2022-12-12T13:52:35.575Z,44.50
2022-12-12T13:53:37.823Z,44.50
2022-12-12T13:54:44.947Z,44.30
2022-12-12T13:55:47.407Z,44.30
2022-12-12T13:56:55.531Z,44.20
2022-12-12T13:58:05.682Z,44.10
2022-12-12T13:59:22.999Z,44.00
2022-12-12T14:00:27.446Z,43.80
2022-12-12T14:01:40.770Z,43.90
2022-12-12T14:02:54.265Z,43.90
2022-12-12T14:03:59.414Z,44.00
2022-12-12T14:05:23.177Z,44.00
2022-12-12T14:06:29.516Z,43.90
2022-12-12T14:07:32.211Z,43.90
2022-12-12T14:08:37.628Z,44.00
2022-12-12T14:09:51.825Z,44.00
2022-12-12T14:11:25.024Z,44.00
2022-12-12T14:12:32.295Z,44.10
2022-12-12T14:13:44.616Z,44.10
2022-12-12T14:15:01.546Z,44.10
2022-12-12T14:16:31.818Z,44.10
2022-12-12T14:17:42.762Z,44.10
2022-12-12T14:18:51.337Z,44.10
2022-12-12T14:19:56.310Z,44.10
2022-12-12T14:21:06.549Z,44.00
2022-12-12T14:22:29.897Z,44.00
2022-12-12T14:23:46.502Z,44.00
2022-12-12T14:25:05.998Z,44.10
2022-12-12T14:26:23.067Z,43.80
2022-12-12T14:27:50.216Z,44.00
2022-12-12T14:29:17.431Z,44.10
2022-12-12T14:30:22.379Z,44.00
2022-12-12T14:31:29.361Z,44.00
2022-12-12T14:32:48.959Z,44.00
2022-12-12T14:34:10.147Z,44.10
2022-12-12T14:35:27.562Z,44.10
2022-12-12T14:36:36.068Z,43.90
2022-12-12T14:38:06.586Z,44.00
2022-12-12T14:39:28.705Z,44.10
2022-12-12T14:40:37.766Z,44.00
2022-12-12T14:41:41.187Z,43.90
2022-12-12T14:43:20.815Z,44.10
2022-12-12T14:44:36.562Z,44.20
2022-12-12T14:45:58.876Z,44.00
2022-12-12T14:47:08.022Z,44.10
2022-12-12T14:48:16.545Z,44.10
2022-12-12T14:49:19.804Z,44.00
2022-12-12T14:50:22.038Z,44.10
2022-12-12T14:51:30.281Z,44.10
2022-12-12T14:52:32.612Z,44.00
2022-12-12T14:53:39.424Z,44.10
2022-12-12T14:54:41.741Z,44.00
2022-12-12T14:55:58.743Z,44.50
2022-12-12T14:57:04.063Z,44.50